createdAt,value
2024-03-06T00:02:08.665Z,18.40
2024-03-06T00:04:36.358Z,18.63
2024-03-06T00:07:03.154Z,19.67
2024-03-06T00:09:30.097Z,19.43
2024-03-06T00:11:58.593Z,16.10
2024-03-06T00:14:25.595Z,15.10
2024-03-06T00:16:52.783Z,16.93
2024-03-06T00:19:20.222Z,18.20
2024-03-06T00:21:47.133Z,16.40
2024-03-06T00:24:16.962Z,16.30
2024-03-06T00:26:45.619Z,19.33
2024-03-06T00:29:12.836Z,17.60
2024-03-06T00:31:44.495Z,19.43
2024-03-06T00:34:12.655Z,17.37
2024-03-06T00:36:39.659Z,17.57
2024-03-06T00:39:06.398Z,16.67
2024-03-06T00:41:33.177Z,19.20
2024-03-06T00:44:00.036Z,16.53
2024-03-06T00:46:26.958Z,16.07
2024-03-06T00:48:53.909Z,19.77
2024-03-06T00:51:26.888Z,16.13
2024-03-06T00:53:59.688Z,17.10
2024-03-06T00:56:26.741Z,19.97
2024-03-06T00:58:53.535Z,15.77
2024-03-06T01:01:20.519Z,15.97
2024-03-06T01:03:47.284Z,19.13
2024-03-06T01:06:14.072Z,17.73
2024-03-06T01:08:40.802Z,17.87
2024-03-06T01:11:07.967Z,18.23
2024-03-06T01:13:34.809Z,16.93
2024-03-06T01:16:01.582Z,16.90
2024-03-06T01:18:28.354Z,18.53
2024-03-06T01:20:55.274Z,19.00
2024-03-06T01:23:22.000Z,18.03
2024-03-06T01:25:48.765Z,19.13
2024-03-06T01:28:15.578Z,16.60
2024-03-06T01:30:42.292Z,18.63
2024-03-06T01:33:09.058Z,18.30
2024-03-06T01:35:35.828Z,18.80
2024-03-06T01:38:02.855Z,17.73
2024-03-06T01:40:30.722Z,20.70
2024-03-06T01:42:57.671Z,18.77
2024-03-06T01:45:24.398Z,18.07
2024-03-06T01:47:52.044Z,19.90
2024-03-06T01:50:19.580Z,18.30
2024-03-06T01:52:47.448Z,18.83
2024-03-06T01:55:15.196Z,18.67
2024-03-06T01:57:42.696Z,21.87
2024-03-06T02:00:15.078Z,21.10
2024-03-06T02:02:43.470Z,21.33
2024-03-06T02:05:10.844Z,23.30
2024-03-06T02:07:40.691Z,20.03
2024-03-06T02:10:11.095Z,21.43
2024-03-06T02:12:38.342Z,21.00
2024-03-06T02:15:05.936Z,22.67
2024-03-06T02:17:32.728Z,20.37
2024-03-06T02:19:59.905Z,23.03
2024-03-06T02:22:26.634Z,20.57
2024-03-06T02:24:53.353Z,21.00
2024-03-06T02:27:20.092Z,21.90
2024-03-06T02:29:46.801Z,22.20
2024-03-06T02:32:15.485Z,22.43
2024-03-06T02:34:42.473Z,19.57
2024-03-06T02:37:09.262Z,22.60
2024-03-06T02:39:36.050Z,24.27
2024-03-06T02:42:02.995Z,21.23
2024-03-06T02:44:29.699Z,22.03
2024-03-06T02:46:56.821Z,20.40
2024-03-06T02:49:23.525Z,25.93
2024-03-06T02:51:50.257Z,21.47
2024-03-06T02:54:17.058Z,22.93
2024-03-06T02:56:43.948Z,21.17
2024-03-06T02:59:10.792Z,21.10
2024-03-06T03:01:37.719Z,21.87
2024-03-06T03:04:04.587Z,22.10
2024-03-06T03:06:31.390Z,22.17
2024-03-06T03:08:58.176Z,20.80
2024-03-06T03:11:24.897Z,20.60
2024-03-06T03:13:51.680Z,22.33
2024-03-06T03:16:21.923Z,21.87
2024-03-06T03:18:51.558Z,23.20
2024-03-06T03:21:18.268Z,20.60
2024-03-06T03:23:44.993Z,23.30
2024-03-06T03:26:14.674Z,19.13
2024-03-06T03:28:41.726Z,21.97
2024-03-06T03:31:10.297Z,20.90
2024-03-06T03:33:40.224Z,24.83
2024-03-06T03:36:10.271Z,20.43
2024-03-06T03:38:39.780Z,21.80
2024-03-06T03:41:18.024Z,19.37
2024-03-06T03:43:44.918Z,24.63
2024-03-06T03:46:11.653Z,21.57
2024-03-06T03:48:39.125Z,22.70
2024-03-06T03:51:06.950Z,23.73
2024-03-06T03:53:36.996Z,19.57
2024-03-06T03:56:04.958Z,19.53
2024-03-06T03:58:32.076Z,23.03
2024-03-06T04:00:58.929Z,21.20
2024-03-06T04:03:25.904Z,19.87
2024-03-06T04:05:53.008Z,24.50
2024-03-06T04:08:20.097Z,21.43
2024-03-06T04:10:46.988Z,22.80
2024-03-06T04:13:14.339Z,21.37
2024-03-06T04:15:41.257Z,21.20
2024-03-06T04:18:08.168Z,22.83
2024-03-06T04:20:35.574Z,23.37
2024-03-06T04:23:02.404Z,25.80
2024-03-06T04:25:29.148Z,21.43
2024-03-06T04:27:55.985Z,21.00
2024-03-06T04:30:22.752Z,26.70
2024-03-06T04:32:49.565Z,22.20
2024-03-06T04:35:17.094Z,23.73
2024-03-06T04:37:45.583Z,21.83
2024-03-06T04:40:13.112Z,23.37
2024-03-06T04:42:39.869Z,19.90
2024-03-06T04:45:27.045Z,22.93
2024-03-06T04:47:53.847Z,23.03
2024-03-06T04:50:20.671Z,22.70
2024-03-06T04:52:47.630Z,21.93
2024-03-06T04:55:16.351Z,27.70
2024-03-06T04:57:47.195Z,21.00
2024-03-06T05:00:14.638Z,22.33
2024-03-06T05:59:06.056Z,23.20
2024-03-06T06:01:32.909Z,25.33
2024-03-06T06:04:03.241Z,24.07
2024-03-06T06:06:31.451Z,24.07
2024-03-06T06:08:58.189Z,25.17
2024-03-06T06:11:24.919Z,22.93
2024-03-06T06:13:51.683Z,23.63
2024-03-06T06:16:18.544Z,24.10
2024-03-06T06:18:45.235Z,27.10
2024-03-06T06:21:11.983Z,24.97
2024-03-06T06:23:40.364Z,24.17
2024-03-06T06:26:07.159Z,24.97
2024-03-06T06:28:33.913Z,24.37
2024-03-06T06:31:00.788Z,25.97
2024-03-06T06:33:27.578Z,25.73
2024-03-06T06:36:00.338Z,29.50
2024-03-06T06:38:27.117Z,26.13
2024-03-06T06:40:53.997Z,23.17
2024-03-06T06:43:20.781Z,28.13
2024-03-06T06:45:47.618Z,25.10
2024-03-06T06:48:14.536Z,26.07
2024-03-06T06:50:41.407Z,25.97
2024-03-06T06:53:08.367Z,26.70
2024-03-06T06:55:35.113Z,25.80
2024-03-06T06:58:01.812Z,26.13
2024-03-06T07:00:29.807Z,27.70
2024-03-06T07:03:02.581Z,29.73
2024-03-06T07:05:29.454Z,25.73
2024-03-06T07:07:57.069Z,27.47
2024-03-06T07:10:24.850Z,26.97
2024-03-06T07:12:51.998Z,25.97
2024-03-06T07:15:19.102Z,31.57
2024-03-06T07:17:46.104Z,28.97
2024-03-06T07:20:13.191Z,29.77
2024-03-06T07:22:39.983Z,28.53
2024-03-06T07:25:06.983Z,28.93
2024-03-06T07:27:33.769Z,25.87
2024-03-06T07:30:00.512Z,27.67
2024-03-06T07:32:27.357Z,24.83
2024-03-06T07:34:54.350Z,25.43
2024-03-06T07:37:21.203Z,32.07
2024-03-06T07:39:50.472Z,28.53
2024-03-06T07:42:19.385Z,28.47
2024-03-06T07:44:46.214Z,27.47
2024-03-06T07:47:13.554Z,27.17
2024-03-06T07:49:40.379Z,25.63
2024-03-06T07:52:07.125Z,25.13
2024-03-06T07:54:34.474Z,27.13
2024-03-06T07:57:01.295Z,26.40
2024-03-06T07:59:28.442Z,27.57
2024-03-06T08:01:57.278Z,27.37
2024-03-06T08:04:24.739Z,26.37
2024-03-06T08:06:51.536Z,29.60
2024-03-06T08:09:18.370Z,26.37
2024-03-06T08:11:45.365Z,27.97
2024-03-06T08:14:12.177Z,27.30
2024-03-06T08:16:39.044Z,33.23
2024-03-06T08:19:05.788Z,31.73
2024-03-06T08:21:32.597Z,30.03
2024-03-06T08:23:59.329Z,27.93
2024-03-06T08:26:26.120Z,26.40
2024-03-06T08:28:53.871Z,29.90
2024-03-06T08:31:22.975Z,28.30
2024-03-06T08:33:50.060Z,30.00
2024-03-06T08:36:16.925Z,29.57
2024-03-06T08:38:43.794Z,29.80
2024-03-06T08:41:10.719Z,29.23
2024-03-06T08:43:37.602Z,32.80
2024-03-06T08:46:04.557Z,31.43
2024-03-06T08:48:31.584Z,28.77
2024-03-06T08:50:58.371Z,32.40
2024-03-06T08:53:25.381Z,31.93
2024-03-06T08:55:52.190Z,32.10
2024-03-06T08:58:18.946Z,34.57
2024-03-06T09:00:45.835Z,35.03
2024-03-06T09:03:13.365Z,34.33
2024-03-06T09:05:40.100Z,39.70
2024-03-06T09:08:10.454Z,32.10
2024-03-06T09:10:37.546Z,35.67
2024-03-06T09:13:04.514Z,40.03
2024-03-06T09:15:31.307Z,35.30
2024-03-06T09:17:59.037Z,34.97
2024-03-06T09:20:26.059Z,38.97
2024-03-06T09:22:55.545Z,34.67
2024-03-06T09:25:22.413Z,37.60
2024-03-06T09:27:49.715Z,34.57
2024-03-06T09:30:17.397Z,33.07
2024-03-06T09:32:45.836Z,35.70
2024-03-06T09:35:13.430Z,36.67
2024-03-06T09:37:40.205Z,36.70
2024-03-06T09:40:09.038Z,34.30
2024-03-06T09:42:35.881Z,34.80
2024-03-06T09:45:03.400Z,38.70
2024-03-06T09:47:33.978Z,36.23
2024-03-06T09:50:03.141Z,35.67
2024-03-06T09:52:30.371Z,29.93
2024-03-06T09:54:57.558Z,32.57
2024-03-06T09:57:24.400Z,35.10
2024-03-06T09:59:51.659Z,32.00
2024-03-06T10:02:40.380Z,30.13
2024-03-06T10:05:08.482Z,31.53
2024-03-06T10:07:35.346Z,32.10
2024-03-06T10:10:02.133Z,33.00
2024-03-06T10:12:30.848Z,33.33
2024-03-06T10:14:58.674Z,29.77
2024-03-06T10:17:28.980Z,34.83
2024-03-06T10:19:56.303Z,29.53
2024-03-06T10:22:25.863Z,29.30
2024-03-06T10:24:57.576Z,29.53
2024-03-06T10:27:24.394Z,34.03
2024-03-06T10:30:06.042Z,31.33
2024-03-06T10:32:33.527Z,30.43
2024-03-06T10:35:00.547Z,26.27
2024-03-06T10:37:27.713Z,31.43
2024-03-06T10:39:57.306Z,30.00
2024-03-06T10:42:25.158Z,31.40
2024-03-06T10:44:56.981Z,28.73
2024-03-06T10:47:24.689Z,29.90
2024-03-06T10:49:51.825Z,29.07
2024-03-06T10:52:20.216Z,28.33
2024-03-06T10:54:47.776Z,30.20
2024-03-06T10:57:15.703Z,28.43
2024-03-06T10:59:43.840Z,24.83
2024-03-06T11:02:11.487Z,26.47
2024-03-06T11:04:41.981Z,26.97
2024-03-06T11:07:12.531Z,30.33
2024-03-06T11:09:41.543Z,30.03
2024-03-06T11:12:08.888Z,27.93
2024-03-06T11:14:40.209Z,30.93
2024-03-06T11:17:11.410Z,25.97
2024-03-06T11:20:01.307Z,26.47
2024-03-06T11:23:01.489Z,28.47
2024-03-06T11:25:47.349Z,26.77
2024-03-06T11:28:42.445Z,26.97
2024-03-06T11:31:20.313Z,25.53
2024-03-06T11:33:48.646Z,25.03
2024-03-06T11:36:22.581Z,30.43
2024-03-06T11:38:51.859Z,26.80
2024-03-06T11:41:20.053Z,24.77
2024-03-06T11:43:49.711Z,30.13
2024-03-06T11:46:16.462Z,26.30
2024-03-06T11:48:43.274Z,24.63
2024-03-06T11:51:10.411Z,32.40
2024-03-06T11:53:42.826Z,25.97
2024-03-06T11:56:09.654Z,32.80
2024-03-06T11:58:36.468Z,26.43
2024-03-06T12:01:03.477Z,23.20
2024-03-06T12:03:30.328Z,27.97
2024-03-06T12:05:57.447Z,26.03
2024-03-06T12:08:25.165Z,25.70
2024-03-06T12:10:53.227Z,28.87
2024-03-06T12:13:22.256Z,24.60
2024-03-06T12:15:49.155Z,23.50
2024-03-06T12:18:18.714Z,19.10
2024-03-06T12:20:47.396Z,17.97
2024-03-06T12:23:23.394Z,16.37
2024-03-06T12:26:01.569Z,18.60
2024-03-06T12:28:32.393Z,28.87
2024-03-06T12:31:02.962Z,27.17
2024-03-06T12:33:29.955Z,21.37
2024-03-06T12:36:07.783Z,22.33
2024-03-06T12:38:34.882Z,16.17
2024-03-06T12:41:01.898Z,11.93
2024-03-06T12:43:30.337Z,9.53
2024-03-06T12:46:00.544Z,12.37
2024-03-06T12:48:31.460Z,11.57
2024-03-06T12:51:06.662Z,14.90
2024-03-06T12:53:36.897Z,15.67
2024-03-06T12:56:04.284Z,15.53
2024-03-06T12:58:32.662Z,18.77
2024-03-06T13:01:00.211Z,16.47
2024-03-06T13:03:27.153Z,18.27
2024-03-06T13:05:54.048Z,15.10
2024-03-06T13:08:21.028Z,16.13
2024-03-06T13:10:48.052Z,16.53
2024-03-06T13:13:14.848Z,17.10
2024-03-06T13:15:41.681Z,25.10
2024-03-06T13:18:08.755Z,23.03
2024-03-06T13:20:35.797Z,20.57
2024-03-06T13:23:02.793Z,19.53
2024-03-06T13:25:30.362Z,18.40
2024-03-06T13:27:57.193Z,15.93
2024-03-06T13:30:24.947Z,14.33
2024-03-06T13:32:51.961Z,13.60
2024-03-06T13:35:18.912Z,20.47
2024-03-06T13:37:45.905Z,13.73
2024-03-06T13:40:14.710Z,13.90
2024-03-06T13:42:42.300Z,13.57
2024-03-06T13:45:15.869Z,10.60
2024-03-06T13:47:44.338Z,10.33
2024-03-06T13:50:12.939Z,11.80
2024-03-06T13:52:40.414Z,9.60
2024-03-06T13:55:08.117Z,14.93
2024-03-06T13:57:36.116Z,10.00
2024-03-06T14:00:13.998Z,11.60
2024-03-06T14:02:41.353Z,12.93
2024-03-06T14:05:08.692Z,14.87
2024-03-06T14:07:36.097Z,19.37
2024-03-06T14:10:06.104Z,13.37
2024-03-06T14:12:33.471Z,11.03
2024-03-06T14:15:00.324Z,11.23
2024-03-06T14:17:27.185Z,9.93
2024-03-06T14:19:54.037Z,10.97
2024-03-06T14:22:20.776Z,10.23
2024-03-06T14:24:47.670Z,10.50
2024-03-06T14:27:17.405Z,11.40
2024-03-06T14:29:44.699Z,10.63
2024-03-06T14:32:12.064Z,11.63
2024-03-06T14:34:38.982Z,12.67
2024-03-06T14:37:05.825Z,13.37
2024-03-06T14:39:32.679Z,14.43
2024-03-06T14:41:59.469Z,15.00
2024-03-06T14:44:26.250Z,12.73
2024-03-06T14:46:53.381Z,9.70
2024-03-06T14:49:20.162Z,11.17
2024-03-06T14:51:46.926Z,10.83
2024-03-06T14:54:13.806Z,28.83
2024-03-06T14:56:41.185Z,11.33
2024-03-06T14:59:08.541Z,11.53
2024-03-06T15:01:35.762Z,12.80
2024-03-06T15:04:02.566Z,9.50
2024-03-06T15:06:29.376Z,12.87
2024-03-06T15:08:59.207Z,11.13
2024-03-06T15:11:26.220Z,9.40
2024-03-06T15:13:53.038Z,13.73
2024-03-06T15:16:19.864Z,11.33
2024-03-06T15:18:48.415Z,11.00
2024-03-06T15:21:15.550Z,20.67
2024-03-06T15:23:42.395Z,14.33
2024-03-06T15:26:09.231Z,13.03
2024-03-06T15:28:36.027Z,12.80
2024-03-06T15:31:05.188Z,10.83
2024-03-06T15:33:32.191Z,13.23
2024-03-06T15:36:01.306Z,13.17
2024-03-06T15:38:28.407Z,16.30
2024-03-06T15:40:55.207Z,22.23
2024-03-06T15:43:22.040Z,23.60
2024-03-06T15:45:48.785Z,27.57
2024-03-06T15:48:16.240Z,28.30
2024-03-06T15:50:43.711Z,34.43
2024-03-06T15:53:11.194Z,36.63
2024-03-06T15:55:37.955Z,29.67
2024-03-06T15:58:05.573Z,27.43
2024-03-06T16:00:32.758Z,37.47
2024-03-06T16:03:00.050Z,37.10
2024-03-06T16:05:27.676Z,30.07
2024-03-06T16:08:05.450Z,34.53
2024-03-06T16:10:33.092Z,30.87
2024-03-06T16:12:59.891Z,32.03
2024-03-06T16:15:26.747Z,31.90
2024-03-06T16:17:53.673Z,28.13
2024-03-06T16:20:21.611Z,31.80
2024-03-06T16:22:48.592Z,26.97
2024-03-06T16:25:15.632Z,26.93
2024-03-06T16:27:42.433Z,27.10
2024-03-06T16:30:10.862Z,27.30
2024-03-06T16:32:37.724Z,28.43
2024-03-06T16:35:05.600Z,26.63
2024-03-06T16:37:33.832Z,27.23
2024-03-06T16:40:01.460Z,28.63
2024-03-06T16:42:28.230Z,26.57
2024-03-06T16:44:55.623Z,28.80
2024-03-06T16:47:22.395Z,26.43
2024-03-06T16:49:49.209Z,27.77
2024-03-06T16:52:15.946Z,25.30
2024-03-06T16:54:43.303Z,24.53
2024-03-06T16:57:12.484Z,24.10
2024-03-06T16:59:39.632Z,23.13
2024-03-06T17:02:06.796Z,23.30
2024-03-06T17:04:33.680Z,25.27
2024-03-06T17:07:02.603Z,24.10
2024-03-06T17:09:29.608Z,24.77
2024-03-06T17:11:56.513Z,24.67
2024-03-06T17:14:23.445Z,22.43
2024-03-06T17:16:50.255Z,23.87
2024-03-06T17:19:17.487Z,21.53
2024-03-06T17:21:44.232Z,21.90
2024-03-06T17:24:11.724Z,24.63
2024-03-06T17:26:39.892Z,22.83
2024-03-06T17:29:09.734Z,21.53
2024-03-06T17:31:36.615Z,21.83
2024-03-06T17:34:03.739Z,22.53
2024-03-06T17:36:33.603Z,20.83
2024-03-06T17:39:01.613Z,22.30
2024-03-06T17:41:28.657Z,21.30
2024-03-06T17:43:55.377Z,22.63
2024-03-06T17:46:22.161Z,19.60
2024-03-06T17:48:49.692Z,22.07
2024-03-06T17:51:16.740Z,21.57
2024-03-06T17:53:43.770Z,21.20
2024-03-06T17:56:10.590Z,23.97
2024-03-06T17:58:37.345Z,23.13
2024-03-06T18:01:06.544Z,22.47
2024-03-06T18:03:33.727Z,21.43
2024-03-06T18:06:00.502Z,21.10
2024-03-06T18:08:28.554Z,19.83
2024-03-06T18:10:55.521Z,21.97
2024-03-06T18:13:22.250Z,21.50
2024-03-06T18:15:49.003Z,22.60
2024-03-06T18:18:16.074Z,23.10
2024-03-06T18:20:43.485Z,20.67
2024-03-06T18:23:12.842Z,19.67
2024-03-06T18:25:40.274Z,21.67
2024-03-06T18:28:07.122Z,22.20
2024-03-06T18:30:34.060Z,22.70
2024-03-06T18:33:01.291Z,21.57
2024-03-06T18:35:28.240Z,21.10
2024-03-06T18:37:55.662Z,22.03
2024-03-06T18:40:24.242Z,21.37
2024-03-06T18:42:51.075Z,24.03
2024-03-06T18:45:18.953Z,23.23
2024-03-06T18:47:47.678Z,24.50
2024-03-06T18:50:14.807Z,22.03
2024-03-06T18:52:41.679Z,24.53
2024-03-06T18:55:09.213Z,23.63
2024-03-06T18:57:35.968Z,22.43
2024-03-06T19:00:03.795Z,25.33
2024-03-06T19:02:30.598Z,22.73
2024-03-06T19:04:57.605Z,19.40
2024-03-06T19:07:24.979Z,22.23
2024-03-06T19:09:53.223Z,22.43
2024-03-06T19:12:20.077Z,21.90
2024-03-06T19:14:47.028Z,24.43
2024-03-06T19:17:17.706Z,22.47
2024-03-06T19:19:44.576Z,23.13
2024-03-06T19:22:11.431Z,23.40
2024-03-06T19:24:41.098Z,21.33
2024-03-06T19:27:07.813Z,24.37
2024-03-06T19:29:34.598Z,22.17
2024-03-06T19:32:02.171Z,24.30
2024-03-06T19:34:29.717Z,27.90
2024-03-06T19:36:57.097Z,24.33
2024-03-06T19:39:24.530Z,24.63
2024-03-06T19:41:53.909Z,22.53
2024-03-06T19:44:29.750Z,22.83
2024-03-06T19:46:56.543Z,21.33
2024-03-06T19:49:23.605Z,22.17
2024-03-06T19:51:51.427Z,23.43
2024-03-06T19:54:18.198Z,26.03
2024-03-06T19:56:45.013Z,24.43
2024-03-06T19:59:11.881Z,22.57
2024-03-06T20:01:39.229Z,22.87
2024-03-06T20:04:06.620Z,23.57
2024-03-06T20:06:33.500Z,24.13
2024-03-06T20:09:00.320Z,23.33
2024-03-06T20:11:28.552Z,26.97
2024-03-06T20:13:55.445Z,24.77
2024-03-06T20:16:22.307Z,26.13
2024-03-06T20:18:49.168Z,28.30
2024-03-06T20:21:15.986Z,25.33
2024-03-06T20:23:43.225Z,24.57
2024-03-06T20:26:10.283Z,27.17
2024-03-06T20:28:37.163Z,27.03
2024-03-06T20:31:04.263Z,24.30
2024-03-06T20:33:33.990Z,26.80
2024-03-06T20:36:00.804Z,27.83
2024-03-06T20:38:27.591Z,26.03
2024-03-06T20:40:54.422Z,26.17
2024-03-06T20:43:22.992Z,24.27
2024-03-06T20:45:51.880Z,26.17
2024-03-06T20:48:19.048Z,27.10
2024-03-06T20:50:45.909Z,29.77
2024-03-06T20:53:12.928Z,26.00
2024-03-06T20:55:39.734Z,28.10
2024-03-06T20:58:06.620Z,26.70
2024-03-06T21:00:33.667Z,29.13
2024-03-06T21:03:00.570Z,27.10
2024-03-06T21:05:27.439Z,25.07
2024-03-06T21:07:54.164Z,26.50
2024-03-06T21:10:20.960Z,26.43
2024-03-06T21:12:50.784Z,29.97
2024-03-06T21:15:17.770Z,30.67
2024-03-06T21:17:44.965Z,27.97
2024-03-06T21:20:12.776Z,30.67
2024-03-06T21:22:44.304Z,29.40
2024-03-06T21:25:12.699Z,28.40
2024-03-06T21:27:40.210Z,26.93
2024-03-06T21:30:08.432Z,30.73
2024-03-06T21:32:35.998Z,31.40
2024-03-06T21:35:03.066Z,29.20
2024-03-06T21:37:29.906Z,29.10
2024-03-06T21:39:56.682Z,31.07
2024-03-06T21:42:23.580Z,30.53
2024-03-06T21:44:51.936Z,27.97
2024-03-06T21:47:18.906Z,31.57
2024-03-06T21:49:45.853Z,31.13
2024-03-06T21:52:13.557Z,33.00
2024-03-06T21:54:40.518Z,30.90
2024-03-06T21:57:12.590Z,29.43
2024-03-06T21:59:40.642Z,32.57
2024-03-06T22:02:08.434Z,35.10
2024-03-06T22:04:35.325Z,30.67
2024-03-06T22:07:02.059Z,31.97
2024-03-06T22:09:28.865Z,32.90
2024-03-06T22:11:55.664Z,28.17
2024-03-06T22:14:22.563Z,31.13
2024-03-06T22:16:49.355Z,32.23
2024-03-06T22:19:16.139Z,34.57
2024-03-06T22:21:42.938Z,31.57
2024-03-06T22:24:09.779Z,30.97
2024-03-06T22:26:36.677Z,32.77
2024-03-06T22:29:04.938Z,31.23
2024-03-06T22:31:31.704Z,32.70
2024-03-06T22:33:58.527Z,33.87
2024-03-06T22:36:27.127Z,33.60
2024-03-06T22:38:54.484Z,32.87
2024-03-06T22:41:22.816Z,33.23
2024-03-06T22:43:50.139Z,32.80
2024-03-06T22:46:17.094Z,29.67
2024-03-06T22:48:44.106Z,31.40
2024-03-06T22:51:12.328Z,35.23
2024-03-06T22:53:39.322Z,34.30
2024-03-06T22:56:06.906Z,35.37
2024-03-06T22:58:33.662Z,35.43
2024-03-06T23:01:00.493Z,31.53
2024-03-06T23:03:27.650Z,29.57
2024-03-06T23:05:54.570Z,34.13
2024-03-06T23:08:21.442Z,34.27
2024-03-06T23:10:48.218Z,34.37
2024-03-06T23:13:18.824Z,30.93
2024-03-06T23:15:49.783Z,36.00
2024-03-06T23:18:16.660Z,34.27
2024-03-06T23:20:43.513Z,36.70
2024-03-06T23:23:10.672Z,35.03
2024-03-06T23:25:37.448Z,35.00
2024-03-06T23:28:04.450Z,36.77
2024-03-06T23:30:31.244Z,32.90
2024-03-06T23:32:58.078Z,32.47
2024-03-06T23:35:24.993Z,38.80
2024-03-06T23:37:52.475Z,33.47
2024-03-06T23:40:19.651Z,32.20
2024-03-06T23:42:48.017Z,35.43
2024-03-06T23:45:16.281Z,32.40
2024-03-06T23:47:44.982Z,31.13
2024-03-06T23:50:12.300Z,34.00
2024-03-06T23:52:39.210Z,36.63
2024-03-06T23:55:11.527Z,35.63
2024-03-06T23:57:38.270Z,32.23
